Enka Village, North Carolina
Current Conditions -  °F | °C
As of 10:01 AM on Monday 22 Dec 2014 (Local Time) from KAVL Reporting Station
Haze Haze  
Wind Chill: 35°   Ceiling: 400
Heat Index: 40°   Visibility: 5mi
Dew Point: 38°   Wind: 7mph
Humidity: 93%   Direction: 170°S
Pressure: 30.09"   Gusts: NA
Location:  35.4572°N, 82.7746°W
Report Text: KAVL 221501Z 17006KT 5SM BR OVC004 04/03 A3009 RMK AO2 T00440033
Loading
Personal Weather Stations






























Interactive Weather Map New forecast layout! Learn more

10-Day Weather Forecast

Advertisements
Track Severe Weather on mobile